Time;durP1;ratioP1;P1;durP2;ratioP2;P2;SDS_P1;SDS_P2;PMS_P1;PMS_P2;Temp;Humidity;BMP_temperature;BMP_pressure;BME280_temperature;BME280_humidity;BME280_pressure;Samples;Min_cycle;Max_cycle;Signal;HPM_P1;HPM_P2
2022/10/22 03:02:30;;;;;;;;;;;13.30;99.90;;;;;;5256042;23;20530;-67
2022/10/22 03:04:57;;;;;;;;;;;13.30;99.90;;;;;;5024899;28;19971;-67
2022/10/22 03:07:23;;;;;;;;;;;13.20;99.90;;;;;;5016587;28;19971;-68
2022/10/22 03:09:50;;;;;;;;;;;13.10;99.90;;;;;;5020245;28;19964;-67
2022/10/22 03:12:17;;;;;;;;;;;13.10;99.90;;;;;;5018243;28;20285;-65
2022/10/22 03:14:43;;;;;;;;;;;13.00;99.90;;;;;;5015292;28;20422;-68
2022/10/22 03:17:10;;;;;;;;;;;13.00;99.90;;;;;;5015600;28;19931;-67
2022/10/22 03:19:38;;;;;;;;;;;13.00;99.90;;;;;;5010758;28;20028;-68
2022/10/22 03:22:06;;;;;;;;;;;13.00;99.90;;;;;;5020984;28;19931;-68
2022/10/22 03:24:35;;;;;;;;;;;12.80;99.90;;;;;;5015782;28;19965;-67
2022/10/22 03:27:02;;;;;;;;;;;12.80;99.90;;;;;;5013459;28;19965;-68
2022/10/22 03:29:29;;;;;;;;;;;12.80;99.90;;;;;;5010040;28;19988;-67
2022/10/22 03:31:55;;;;;;;;;;;12.90;99.90;;;;;;5010428;28;19990;-67
2022/10/22 03:34:22;;;;;;;;;;;12.80;99.90;;;;;;5016354;28;20539;-68
2022/10/22 03:36:51;;;;;;;;;;;12.80;99.90;;;;;;5020750;28;19927;-68
2022/10/22 03:39:18;;;;;;;;;;;12.80;99.90;;;;;;5019849;28;19960;-68
2022/10/22 03:41:45;;;;;;;;;;;12.70;99.90;;;;;;5021785;28;19933;-65
2022/10/22 03:44:12;;;;;;;;;;;12.60;99.90;;;;;;5020188;28;19925;-67
2022/10/22 03:46:39;;;;;;;;;;;12.50;99.90;;;;;;5026470;28;20354;-66
2022/10/22 03:49:05;;;;;;;;;;;12.50;99.90;;;;;;5018402;28;19929;-67
2022/10/22 03:51:33;;;;;;;;;;;12.40;99.90;;;;;;5015854;28;19929;-70
2022/10/22 03:54:01;;;;;;;;;;;12.30;99.90;;;;;;5015259;28;20016;-67
2022/10/22 03:56:28;;;;;;;;;;;12.30;99.90;;;;;;5019473;28;19971;-68
2022/10/22 03:58:55;;;;;;;;;;;12.30;99.90;;;;;;5018251;28;20000;-68
2022/10/22 04:01:22;;;;;;;;;;;12.40;99.90;;;;;;5024904;28;19930;-67
2022/10/22 04:03:49;;;;;;;;;;;12.50;99.90;;;;;;5020405;28;19929;-65
2022/10/22 04:06:16;;;;;;;;;;;12.50;99.90;;;;;;5020256;28;20355;-69
2022/10/22 04:08:43;;;;;;;;;;;12.50;99.90;;;;;;5019841;28;19926;-68
2022/10/22 04:11:12;;;;;;;;;;;12.50;99.90;;;;;;5020198;28;20351;-67
2022/10/22 04:13:39;;;;;;;;;;;12.60;99.90;;;;;;5015267;28;19936;-68
2022/10/22 04:16:06;;;;;;;;;;;12.60;99.90;;;;;;5023886;28;19929;-66
2022/10/22 04:18:33;;;;;;;;;;;12.60;99.90;;;;;;5013434;28;19931;-68
2022/10/22 04:21:00;;;;;;;;;;;12.70;99.90;;;;;;5022328;28;19932;-68
2022/10/22 04:23:27;;;;;;;;;;;12.60;99.90;;;;;;5021226;28;19926;-69
2022/10/22 04:25:57;;;;;;;;;;;12.50;99.90;;;;;;5022268;28;19926;-68
2022/10/22 04:28:25;;;;;;;;;;;12.60;99.90;;;;;;5023792;28;19925;-68
2022/10/22 04:30:52;;;;;;;;;;;12.70;99.90;;;;;;5023483;28;20384;-68
2022/10/22 04:33:19;;;;;;;;;;;12.80;99.90;;;;;;5027418;28;19929;-68
2022/10/22 04:35:45;;;;;;;;;;;12.90;99.90;;;;;;5015222;28;19929;-69
2022/10/22 04:38:12;;;;;;;;;;;13.00;99.90;;;;;;5021737;28;20339;-68
2022/10/22 04:40:39;;;;;;;;;;;13.00;99.90;;;;;;5013847;28;19933;-67
2022/10/22 04:43:06;;;;;;;;;;;13.10;99.90;;;;;;5022566;28;20376;-68
2022/10/22 04:45:34;;;;;;;;;;;13.30;99.90;;;;;;5017514;28;19925;-68
2022/10/22 04:48:01;;;;;;;;;;;13.40;99.90;;;;;;5025067;28;19930;-66
2022/10/22 04:50:27;;;;;;;;;;;13.50;99.90;;;;;;5021440;28;19937;-69
2022/10/22 04:52:54;;;;;;;;;;;13.50;99.90;;;;;;5012058;28;19934;-70
2022/10/22 04:55:21;;;;;;;;;;;13.40;99.90;;;;;;5020613;28;19952;-68
2022/10/22 04:57:48;;;;;;;;;;;13.40;99.90;;;;;;5013693;28;19925;-68
2022/10/22 05:00:16;;;;;;;;;;;13.40;99.90;;;;;;5017309;28;20357;-67
2022/10/22 05:02:48;;;;;;;;;;;13.40;99.90;;;;;;5011007;28;19926;-68
2022/10/22 05:05:15;;;;;;;;;;;13.40;99.90;;;;;;5019148;28;20346;-68
2022/10/22 05:07:41;;;;;;;;;;;13.40;99.90;;;;;;5023433;28;19925;-68
2022/10/22 05:10:09;;;;;;;;;;;13.40;99.90;;;;;;5019209;28;20427;-68
2022/10/22 05:12:36;;;;;;;;;;;13.40;99.90;;;;;;5023880;28;19932;-68
2022/10/22 05:15:02;;;;;;;;;;;13.30;99.90;;;;;;5021722;28;19926;-66
2022/10/22 05:17:29;;;;;;;;;;;13.30;99.90;;;;;;5018072;28;20124;-68
2022/10/22 05:19:57;;;;;;;;;;;13.30;99.90;;;;;;5022989;28;19925;-68
2022/10/22 05:22:24;;;;;;;;;;;13.20;99.90;;;;;;5021156;28;20359;-68
2022/10/22 05:24:51;;;;;;;;;;;13.10;99.90;;;;;;5022291;28;20388;-68
2022/10/22 05:27:18;;;;;;;;;;;13.00;99.90;;;;;;5021134;28;19929;-68
2022/10/22 05:29:44;;;;;;;;;;;13.00;99.90;;;;;;5016265;28;20415;-68
2022/10/22 05:32:11;;;;;;;;;;;12.90;99.90;;;;;;5022507;28;19925;-68
2022/10/22 05:34:38;;;;;;;;;;;12.90;99.90;;;;;;5024181;28;19925;-67
2022/10/22 05:37:06;;;;;;;;;;;12.70;99.90;;;;;;5020824;28;19925;-68
2022/10/22 05:39:35;;;;;;;;;;;12.70;99.90;;;;;;5016747;28;19925;-67
2022/10/22 05:42:02;;;;;;;;;;;12.70;99.90;;;;;;5022148;28;19925;-67
2022/10/22 05:44:29;;;;;;;;;;;12.70;99.90;;;;;;5018566;28;19925;-68
2022/10/22 05:46:55;;;;;;;;;;;12.70;99.90;;;;;;5017468;28;19979;-67
2022/10/22 05:49:22;;;;;;;;;;;12.70;99.90;;;;;;5010669;28;19933;-72
2022/10/22 05:51:49;;;;;;;;;;;12.70;99.90;;;;;;5020400;28;19925;-68
2022/10/22 05:54:18;;;;;;;;;;;12.60;99.90;;;;;;5012299;28;19933;-66
2022/10/22 05:56:45;;;;;;;;;;;12.60;99.90;;;;;;5021703;28;20299;-67
2022/10/22 05:59:12;;;;;;;;;;;12.70;99.90;;;;;;5013214;28;19933;-66
2022/10/22 06:01:40;;;;;;;;;;;12.60;99.90;;;;;;5016147;28;19984;-65
2022/10/22 06:04:08;;;;;;;;;;;12.60;99.90;;;;;;5020857;28;20060;-67
2022/10/22 06:06:36;;;;;;;;;;;12.80;99.90;;;;;;5018781;28;19932;-67
2022/10/22 06:09:04;;;;;;;;;;;12.80;99.90;;;;;;5017562;28;19929;-67
2022/10/22 06:11:32;;;;;;;;;;;12.90;99.90;;;;;;5022589;28;19929;-67
2022/10/22 06:13:59;;;;;;;;;;;12.90;99.90;;;;;;5012989;28;20335;-67
2022/10/22 06:16:28;;;;;;;;;;;12.80;99.90;;;;;;5016151;28;20385;-67
2022/10/22 06:18:55;;;;;;;;;;;12.80;99.90;;;;;;5016374;28;19979;-67
2022/10/22 06:21:21;;;;;;;;;;;12.80;99.90;;;;;;5016270;28;19941;-67
2022/10/22 06:23:48;;;;;;;;;;;12.90;99.90;;;;;;5022157;28;20458;-68
2022/10/22 06:26:16;;;;;;;;;;;13.00;99.90;;;;;;5014348;28;19940;-66
2022/10/22 06:28:44;;;;;;;;;;;13.00;99.90;;;;;;5015346;28;19929;-67
2022/10/22 06:31:11;;;;;;;;;;;13.00;99.90;;;;;;5024281;28;19926;-63
2022/10/22 06:33:41;;;;;;;;;;;13.10;99.90;;;;;;5012616;28;19926;-67
2022/10/22 06:36:08;;;;;;;;;;;13.20;99.90;;;;;;5028602;28;19925;-67
2022/10/22 06:38:35;;;;;;;;;;;13.10;99.90;;;;;;5028126;28;20340;-67
2022/10/22 06:41:03;;;;;;;;;;;13.10;99.90;;;;;;5015395;28;19925;-67
2022/10/22 06:43:30;;;;;;;;;;;13.10;99.90;;;;;;5017219;28;19930;-67
2022/10/22 06:46:00;;;;;;;;;;;13.10;99.90;;;;;;5014850;28;19926;-68
2022/10/22 06:48:27;;;;;;;;;;;13.20;99.90;;;;;;5014341;28;19926;-67
2022/10/22 06:50:54;;;;;;;;;;;13.30;99.90;;;;;;5022859;28;20330;-66
2022/10/22 06:53:21;;;;;;;;;;;13.40;99.90;;;;;;5013896;28;19929;-67
2022/10/22 06:55:47;;;;;;;;;;;13.50;99.90;;;;;;5024621;28;19932;-67
2022/10/22 06:58:14;;;;;;;;;;;13.60;99.90;;;;;;5020400;28;20350;-66
2022/10/22 07:00:41;;;;;;;;;;;13.70;99.90;;;;;;5019009;28;19929;-66
2022/10/22 07:03:12;;;;;;;;;;;13.70;99.90;;;;;;5020407;28;19925;-71
2022/10/22 07:05:39;;;;;;;;;;;13.80;99.90;;;;;;5014060;28;19930;-69
2022/10/22 07:08:06;;;;;;;;;;;13.80;99.90;;;;;;5020119;28;19932;-70
2022/10/22 07:10:32;;;;;;;;;;;13.90;99.90;;;;;;5011582;28;19926;-70
2022/10/22 07:12:59;;;;;;;;;;;13.90;99.90;;;;;;5017045;28;19930;-69
2022/10/22 07:15:26;;;;;;;;;;;14.00;99.90;;;;;;5019023;28;19933;-70
2022/10/22 07:17:53;;;;;;;;;;;14.00;99.90;;;;;;5011648;28;19926;-70
2022/10/22 07:20:21;;;;;;;;;;;14.10;99.90;;;;;;5013588;28;19932;-70
2022/10/22 07:22:48;;;;;;;;;;;14.20;99.90;;;;;;5021601;28;19926;-70
2022/10/22 07:25:15;;;;;;;;;;;14.30;99.90;;;;;;5013870;28;19926;-69
2022/10/22 07:27:41;;;;;;;;;;;14.40;99.90;;;;;;5014022;28;19929;-70
2022/10/22 07:30:09;;;;;;;;;;;14.50;99.90;;;;;;5020614;28;20384;-70
2022/10/22 07:32:35;;;;;;;;;;;14.60;99.90;;;;;;5022602;28;19926;-70
2022/10/22 07:35:03;;;;;;;;;;;14.70;99.90;;;;;;5016380;28;20001;-71
2022/10/22 07:37:31;;;;;;;;;;;14.90;99.90;;;;;;5014643;28;19925;-70
2022/10/22 07:39:58;;;;;;;;;;;15.10;99.90;;;;;;5022394;28;19925;-68
2022/10/22 07:42:25;;;;;;;;;;;15.30;99.90;;;;;;5023449;28;19971;-70
2022/10/22 07:44:52;;;;;;;;;;;15.40;99.90;;;;;;5022295;28;19930;-71
2022/10/22 07:47:18;;;;;;;;;;;15.50;99.90;;;;;;5022233;28;19933;-71
2022/10/22 07:49:45;;;;;;;;;;;15.50;99.90;;;;;;5021356;28;20460;-71
2022/10/22 07:52:12;;;;;;;;;;;15.60;99.90;;;;;;5019439;28;19925;-70
2022/10/22 07:54:40;;;;;;;;;;;15.60;99.90;;;;;;5014026;28;19926;-71
2022/10/22 07:57:07;;;;;;;;;;;15.60;99.90;;;;;;5024400;28;19925;-70
2022/10/22 07:59:34;;;;;;;;;;;15.60;99.90;;;;;;5026143;28;20284;-70
2022/10/22 08:02:01;;;;;;;;;;;15.60;99.90;;;;;;5017357;28;19928;-70
2022/10/22 08:04:28;;;;;;;;;;;15.60;99.90;;;;;;5020697;28;19925;-70
2022/10/22 08:06:55;;;;;;;;;;;15.60;99.90;;;;;;5022890;28;19937;-71
2022/10/22 08:09:21;;;;;;;;;;;15.60;99.90;;;;;;5017640;28;19937;-71
2022/10/22 08:11:50;;;;;;;;;;;15.60;99.90;;;;;;5016132;28;19925;-71
2022/10/22 08:14:17;;;;;;;;;;;15.70;99.90;;;;;;5020417;28;19999;-71
2022/10/22 08:16:45;;;;;;;;;;;15.70;99.90;;;;;;5014969;28;19925;-71
2022/10/22 08:19:12;;;;;;;;;;;15.70;99.90;;;;;;5016292;28;19933;-71
2022/10/22 08:21:39;;;;;;;;;;;15.80;99.90;;;;;;5021596;28;19929;-71
2022/10/22 08:24:06;;;;;;;;;;;15.80;99.90;;;;;;5013766;28;19930;-69
2022/10/22 08:26:33;;;;;;;;;;;15.90;99.90;;;;;;5015757;28;20327;-71
2022/10/22 08:29:02;;;;;;;;;;;15.90;99.90;;;;;;5019537;28;19925;-71
2022/10/22 08:31:28;;;;;;;;;;;16.00;99.90;;;;;;5015429;28;19933;-70
2022/10/22 08:33:55;;;;;;;;;;;16.00;99.90;;;;;;5013027;28;19925;-71
2022/10/22 08:36:22;;;;;;;;;;;16.10;99.90;;;;;;5018353;28;19925;-70
2022/10/22 08:38:49;;;;;;;;;;;16.20;99.90;;;;;;5018672;28;19925;-71
2022/10/22 08:41:17;;;;;;;;;;;16.30;99.90;;;;;;5021012;28;19929;-70
2022/10/22 08:44:04;;;;;;;;;;;16.40;99.90;;;;;;5015661;28;19926;-71
2022/10/22 08:46:42;;;;;;;;;;;16.50;99.90;;;;;;5012638;28;19925;-71
2022/10/22 08:49:12;;;;;;;;;;;16.60;99.90;;;;;;5013070;28;19930;-70
2022/10/22 08:51:39;;;;;;;;;;;16.70;99.90;;;;;;5016882;28;19950;-70
2022/10/22 08:54:13;;;;;;;;;;;16.70;99.90;;;;;;5013183;28;20020;-70
2022/10/22 08:56:41;;;;;;;;;;;16.80;99.90;;;;;;5012625;28;19929;-70
2022/10/22 08:59:11;;;;;;;;;;;16.70;99.90;;;;;;5016394;28;19980;-70
2022/10/22 09:01:41;;;;;;;;;;;16.50;99.90;;;;;;5019063;28;19925;-70
2022/10/22 09:04:12;;;;;;;;;;;16.50;99.90;;;;;;5024533;28;20387;-71
2022/10/22 09:06:40;;;;;;;;;;;16.50;99.90;;;;;;5014454;28;19925;-71
2022/10/22 09:09:11;;;;;;;;;;;16.50;99.90;;;;;;5013369;28;20015;-71
2022/10/22 09:11:39;;;;;;;;;;;16.60;99.90;;;;;;5018138;28;19926;-71
2022/10/22 09:14:06;;;;;;;;;;;16.50;99.90;;;;;;5016884;28;19951;-70
2022/10/22 09:16:36;;;;;;;;;;;16.50;99.90;;;;;;5020178;28;19926;-70
2022/10/22 09:19:11;;;;;;;;;;;16.50;99.90;;;;;;5020793;28;19925;-70
2022/10/22 09:21:43;;;;;;;;;;;16.50;99.90;;;;;;5013149;28;19925;-70
2022/10/22 09:24:12;;;;;;;;;;;16.40;99.90;;;;;;5022486;28;19976;-69
2022/10/22 09:26:39;;;;;;;;;;;16.40;99.90;;;;;;5012539;28;19929;-70
2022/10/22 09:29:07;;;;;;;;;;;16.50;99.90;;;;;;5014701;28;19955;-70
2022/10/22 09:31:34;;;;;;;;;;;16.50;99.90;;;;;;5016001;28;20300;-70
2022/10/22 09:34:06;;;;;;;;;;;16.50;99.90;;;;;;5014411;28;19965;-69
2022/10/22 09:36:35;;;;;;;;;;;16.50;99.90;;;;;;5014853;28;19929;-70
2022/10/22 09:39:03;;;;;;;;;;;16.50;99.90;;;;;;5019202;28;19933;-69
2022/10/22 09:41:30;;;;;;;;;;;16.40;99.90;;;;;;5016534;28;20301;-70
2022/10/22 09:43:57;;;;;;;;;;;16.50;99.90;;;;;;5017840;28;19925;-70
2022/10/22 09:46:25;;;;;;;;;;;16.50;99.90;;;;;;5015884;28;19932;-70
2022/10/22 09:48:55;;;;;;;;;;;16.60;99.90;;;;;;5010255;28;20476;-70
2022/10/22 09:51:23;;;;;;;;;;;16.50;99.90;;;;;;5016957;28;19925;-69
2022/10/22 09:53:57;;;;;;;;;;;16.50;99.90;;;;;;5015939;28;19925;-71
2022/10/22 09:56:25;;;;;;;;;;;16.40;99.90;;;;;;5026747;28;20023;-71
2022/10/22 09:58:52;;;;;;;;;;;16.40;99.90;;;;;;5015791;28;19960;-72
2022/10/22 10:01:26;;;;;;;;;;;16.40;99.90;;;;;;5017792;28;19932;-71
2022/10/22 10:03:53;;;;;;;;;;;16.50;99.90;;;;;;5022684;28;19936;-71
2022/10/22 10:06:20;;;;;;;;;;;16.50;99.90;;;;;;5019015;28;19926;-69
2022/10/22 10:08:47;;;;;;;;;;;16.60;99.90;;;;;;5016332;28;20384;-71
2022/10/22 10:11:18;;;;;;;;;;;16.50;99.90;;;;;;5019268;28;19926;-71
2022/10/22 10:13:52;;;;;;;;;;;16.60;99.90;;;;;;5019055;28;19933;-71
2022/10/22 10:16:27;;;;;;;;;;;16.60;99.90;;;;;;5021002;28;19932;-71
2022/10/22 10:19:02;;;;;;;;;;;16.60;99.90;;;;;;5011633;28;19929;-71
2022/10/22 10:21:33;;;;;;;;;;;16.60;99.90;;;;;;5017460;28;19932;-71
2022/10/22 10:24:03;;;;;;;;;;;16.60;99.90;;;;;;5010348;28;19926;-71
2022/10/22 10:26:35;;;;;;;;;;;16.60;99.90;;;;;;5020177;28;19925;-71
2022/10/22 10:29:10;;;;;;;;;;;16.60;99.90;;;;;;5017878;28;19925;-71
2022/10/22 10:31:40;;;;;;;;;;;16.60;99.90;;;;;;5018352;28;19929;-71
2022/10/22 10:34:12;;;;;;;;;;;16.60;99.90;;;;;;5011904;28;20331;-71
2022/10/22 10:36:43;;;;;;;;;;;16.60;99.90;;;;;;5012113;28;19969;-71
2022/10/22 10:39:12;;;;;;;;;;;16.50;99.90;;;;;;5016164;28;19930;-70
2022/10/22 10:41:48;;;;;;;;;;;16.60;99.90;;;;;;5015359;28;19933;-71
2022/10/22 10:44:31;;;;;;;;;;;16.60;99.90;;;;;;5015665;28;19926;-71
2022/10/22 10:47:07;;;;;;;;;;;16.60;99.90;;;;;;5012846;28;20396;-71
2022/10/22 10:49:35;;;;;;;;;;;16.60;99.90;;;;;;5017867;28;19929;-71
2022/10/22 10:52:08;;;;;;;;;;;16.60;99.90;;;;;;5027409;28;19925;-71
2022/10/22 10:54:40;;;;;;;;;;;16.60;99.90;;;;;;5021745;28;19937;-72
2022/10/22 10:57:13;;;;;;;;;;;16.60;99.90;;;;;;5021013;28;19964;-71
2022/10/22 10:59:45;;;;;;;;;;;16.60;99.90;;;;;;5016346;28;19929;-71
2022/10/22 11:02:35;;;;;;;;;;;16.50;99.90;;;;;;5027399;28;19932;-69
2022/10/22 11:05:20;;;;;;;;;;;16.50;99.90;;;;;;5015965;28;19925;-70
2022/10/22 11:07:49;;;;;;;;;;;16.50;99.90;;;;;;5019758;28;19933;-70
2022/10/22 11:10:22;;;;;;;;;;;16.40;99.90;;;;;;5025409;28;19926;-70
2022/10/22 11:12:53;;;;;;;;;;;16.50;99.90;;;;;;5027907;28;20384;-69
2022/10/22 11:15:24;;;;;;;;;;;16.40;99.90;;;;;;5018268;28;19933;-70
2022/10/22 11:17:52;;;;;;;;;;;16.50;99.90;;;;;;5015467;28;19926;-69
2022/10/22 11:20:21;;;;;;;;;;;16.50;99.90;;;;;;5014223;28;19937;-71
2022/10/22 11:22:50;;;;;;;;;;;16.60;99.90;;;;;;5020709;28;19925;-70
2022/10/22 11:25:18;;;;;;;;;;;16.70;99.90;;;;;;5016899;28;20395;-70
2022/10/22 11:27:47;;;;;;;;;;;16.80;99.90;;;;;;5026566;28;19940;-69
2022/10/22 11:30:16;;;;;;;;;;;17.00;99.90;;;;;;5018450;28;19936;-71
2022/10/22 11:32:45;;;;;;;;;;;17.10;99.90;;;;;;5022593;28;19932;-71
2022/10/22 11:35:14;;;;;;;;;;;17.00;99.90;;;;;;5023205;28;19932;-69
2022/10/22 11:37:42;;;;;;;;;;;17.00;99.90;;;;;;5023467;28;19925;-70
2022/10/22 11:40:14;;;;;;;;;;;17.00;99.90;;;;;;5017392;28;19925;-70
2022/10/22 11:42:45;;;;;;;;;;;17.00;99.90;;;;;;5016769;28;19925;-71
2022/10/22 11:45:27;;;;;;;;;;;17.30;99.90;;;;;;5024226;28;20418;-71
2022/10/22 11:47:57;;;;;;;;;;;17.60;99.90;;;;;;5023617;28;20403;-71
2022/10/22 11:50:25;;;;;;;;;;;17.50;99.90;;;;;;5021339;28;20387;-70
2022/10/22 11:53:00;;;;;;;;;;;17.60;99.90;;;;;;5016446;28;19926;-71
2022/10/22 11:55:30;;;;;;;;;;;17.70;99.90;;;;;;5030529;28;19975;-71
2022/10/22 11:57:59;;;;;;;;;;;17.80;99.90;;;;;;5018530;28;20292;-71
2022/10/22 12:00:40;;;;;;;;;;;18.00;99.90;;;;;;5022471;28;20376;-71
2022/10/22 12:03:17;;;;;;;;;;;18.10;99.90;;;;;;5018431;28;19925;-70
2022/10/22 12:05:44;;;;;;;;;;;18.50;99.90;;;;;;5024501;28;19955;-71
2022/10/22 12:08:20;;;;;;;;;;;19.00;99.90;;;;;;5021124;28;19929;-70
2022/10/22 12:11:05;;;;;;;;;;;20.30;99.90;;;;;;5018629;28;19933;-70
2022/10/22 12:13:33;;;;;;;;;;;21.90;99.90;;;;;;5023870;28;19980;-71
2022/10/22 12:16:02;;;;;;;;;;;26.30;99.90;;;;;;5025738;28;20005;-74
2022/10/22 12:18:34;;;;;;;;;;;28.80;99.90;;;;;;5014116;28;20308;-71
2022/10/22 12:21:02;;;;;;;;;;;28.60;99.90;;;;;;5007024;28;20182;-71
2022/10/22 12:23:29;;;;;;;;;;;25.40;99.90;;;;;;5013563;28;19925;-70
2022/10/22 12:25:56;;;;;;;;;;;23.70;99.90;;;;;;5024676;28;19925;-72
2022/10/22 12:28:23;;;;;;;;;;;22.40;99.90;;;;;;5015329;28;19930;-72
2022/10/22 12:30:50;;;;;;;;;;;21.30;99.90;;;;;;5015319;28;19933;-71
2022/10/22 12:33:18;;;;;;;;;;;20.70;99.90;;;;;;5014445;28;20020;-72
2022/10/22 12:35:47;;;;;;;;;;;20.30;99.90;;;;;;5015503;28;19929;-71
2022/10/22 12:38:15;;;;;;;;;;;20.00;99.90;;;;;;5017621;28;19964;-70
2022/10/22 12:40:42;;;;;;;;;;;21.30;99.90;;;;;;5014654;28;19925;-72
2022/10/22 12:43:11;;;;;;;;;;;21.70;99.90;;;;;;5012823;28;19926;-70
2022/10/22 12:45:39;;;;;;;;;;;23.70;99.90;;;;;;5016599;28;19929;-70
2022/10/22 12:48:07;;;;;;;;;;;23.20;99.90;;;;;;5013776;28;20387;-71
2022/10/22 12:50:37;;;;;;;;;;;22.90;99.90;;;;;;5020931;28;19933;-71
2022/10/22 12:53:07;;;;;;;;;;;24.50;99.90;;;;;;5019283;28;20027;-70
2022/10/22 12:55:34;;;;;;;;;;;23.90;99.90;;;;;;5020250;28;20037;-70
2022/10/22 12:58:04;;;;;;;;;;;26.00;99.90;;;;;;5020083;28;20032;-70
2022/10/22 13:00:33;;;;;;;;;;;27.80;99.90;;;;;;5021515;28;19925;-72
2022/10/22 13:03:02;;;;;;;;;;;28.30;99.90;;;;;;5025539;28;19998;-71
2022/10/22 13:05:37;;;;;;;;;;;27.50;99.90;;;;;;5016891;28;20411;-71
2022/10/22 13:08:08;;;;;;;;;;;27.60;99.90;;;;;;5021911;28;19956;-71
2022/10/22 13:10:36;;;;;;;;;;;28.20;99.90;;;;;;5016662;28;20497;-71
2022/10/22 13:13:05;;;;;;;;;;;29.10;99.90;;;;;;5024497;28;19932;-71
2022/10/22 13:15:34;;;;;;;;;;;29.10;99.90;;;;;;5017436;28;20020;-72
2022/10/22 13:18:02;;;;;;;;;;;28.10;99.90;;;;;;5017221;28;19925;-70
2022/10/22 13:20:29;;;;;;;;;;;26.70;99.90;;;;;;5012871;28;19968;-73
2022/10/22 13:22:59;;;;;;;;;;;25.10;99.90;;;;;;5013664;28;20039;-71
2022/10/22 13:25:28;;;;;;;;;;;23.80;99.90;;;;;;5022818;28;20379;-71
2022/10/22 13:27:56;;;;;;;;;;;22.80;99.90;;;;;;5021281;28;19968;-70
2022/10/22 13:30:24;;;;;;;;;;;22.70;99.90;;;;;;5014777;28;19979;-71
2022/10/22 13:32:52;;;;;;;;;;;24.10;99.90;;;;;;5016044;28;19929;-70
2022/10/22 13:35:21;;;;;;;;;;;25.30;99.90;;;;;;5023950;28;19925;-71
2022/10/22 13:37:47;;;;;;;;;;;25.50;99.90;;;;;;5015340;28;19940;-71
2022/10/22 13:40:15;;;;;;;;;;;27.00;99.90;;;;;;5014867;28;20410;-70
2022/10/22 13:42:43;;;;;;;;;;;27.50;99.90;;;;;;5020900;28;19932;-72
2022/10/22 13:45:10;;;;;;;;;;;28.20;99.90;;;;;;5018673;28;19925;-71
2022/10/22 13:47:37;;;;;;;;;;;27.70;99.90;;;;;;5015036;28;19929;-72
2022/10/22 13:50:07;;;;;;;;;;;27.10;99.90;;;;;;5021308;28;19932;-72
2022/10/22 13:52:35;;;;;;;;;;;25.40;99.90;;;;;;5023285;28;19941;-71
2022/10/22 13:55:02;;;;;;;;;;;23.70;99.90;;;;;;5012676;28;19948;-71
2022/10/22 13:57:29;;;;;;;;;;;23.30;99.90;;;;;;5016860;28;19933;-70
2022/10/22 13:59:57;;;;;;;;;;;23.10;99.90;;;;;;5015460;28;19959;-71
2022/10/22 14:02:24;;;;;;;;;;;24.50;99.90;;;;;;5027171;28;19937;-72
2022/10/22 14:04:52;;;;;;;;;;;25.70;99.90;;;;;;5020019;28;19926;-71
2022/10/22 14:07:19;;;;;;;;;;;26.10;99.90;;;;;;5013783;28;20376;-71
2022/10/22 14:09:46;;;;;;;;;;;25.80;99.90;;;;;;5020774;28;19925;-72
2022/10/22 14:12:14;;;;;;;;;;;25.70;99.90;;;;;;5016908;28;19964;-72
2022/10/22 14:14:41;;;;;;;;;;;26.80;99.90;;;;;;5020443;28;19925;-72
2022/10/22 14:17:11;;;;;;;;;;;27.10;99.90;;;;;;5011518;28;19937;-71
2022/10/22 14:19:39;;;;;;;;;;;26.10;99.90;;;;;;5017654;28;19926;-70
2022/10/22 14:22:08;;;;;;;;;;;24.00;99.90;;;;;;5016356;28;19932;-71
2022/10/22 14:24:34;;;;;;;;;;;23.40;99.90;;;;;;5023761;28;20320;-71
2022/10/22 14:27:01;;;;;;;;;;;23.50;99.90;;;;;;5011200;28;19932;-72
2022/10/22 14:29:28;;;;;;;;;;;24.10;99.90;;;;;;5020943;28;19929;-71
2022/10/22 14:31:55;;;;;;;;;;;25.20;99.90;;;;;;5018849;28;19934;-71
2022/10/22 14:34:23;;;;;;;;;;;25.70;99.90;;;;;;5011137;28;19925;-72
2022/10/22 14:36:50;;;;;;;;;;;25.60;99.90;;;;;;5018093;28;20311;-71
2022/10/22 14:39:17;;;;;;;;;;;24.10;99.90;;;;;;5010472;28;19932;-71
2022/10/22 14:41:44;;;;;;;;;;;23.10;99.90;;;;;;5017995;28;19933;-70
2022/10/22 14:44:12;;;;;;;;;;;22.00;99.90;;;;;;5017567;28;19925;-70
2022/10/22 14:46:41;;;;;;;;;;;21.80;99.90;;;;;;5018586;28;19926;-70
2022/10/22 14:49:08;;;;;;;;;;;22.80;99.90;;;;;;5015404;28;20452;-71
2022/10/22 14:51:36;;;;;;;;;;;23.70;99.90;;;;;;5018092;28;19933;-71
2022/10/22 14:54:03;;;;;;;;;;;23.60;99.90;;;;;;5016155;28;19925;-71
2022/10/22 14:56:30;;;;;;;;;;;23.00;99.90;;;;;;5014155;28;19932;-71
2022/10/22 14:58:56;;;;;;;;;;;22.00;99.90;;;;;;5016121;28;19987;-71
2022/10/22 15:01:23;;;;;;;;;;;21.50;99.90;;;;;;5020223;28;19925;-71
2022/10/22 15:03:50;;;;;;;;;;;21.00;99.90;;;;;;5015806;28;19933;-71
2022/10/22 15:06:17;;;;;;;;;;;20.80;99.90;;;;;;5011051;28;19926;-70
2022/10/22 15:08:45;;;;;;;;;;;20.30;99.90;;;;;;5015834;28;19929;-69
2022/10/22 15:11:12;;;;;;;;;;;20.20;99.90;;;;;;5020397;28;19925;-70
2022/10/22 15:13:40;;;;;;;;;;;20.00;99.90;;;;;;5019952;28;19925;-70
2022/10/22 15:16:08;;;;;;;;;;;19.80;99.90;;;;;;5016200;28;19937;-71
2022/10/22 15:18:35;;;;;;;;;;;19.70;99.90;;;;;;5012381;28;19933;-71
2022/10/22 15:21:04;;;;;;;;;;;20.00;99.90;;;;;;5018129;28;20273;-71
2022/10/22 15:23:31;;;;;;;;;;;20.60;99.90;;;;;;5018865;28;19925;-70
2022/10/22 15:25:59;;;;;;;;;;;21.40;99.90;;;;;;5021800;28;19929;-71
2022/10/22 15:28:26;;;;;;;;;;;22.00;99.90;;;;;;5013856;28;19929;-71
2022/10/22 15:30:56;;;;;;;;;;;22.30;99.90;;;;;;5020016;28;19926;-71
2022/10/22 15:33:23;;;;;;;;;;;22.20;99.90;;;;;;5026624;28;19925;-72
2022/10/22 15:35:50;;;;;;;;;;;22.70;99.90;;;;;;5016221;28;19987;-71
2022/10/22 15:38:17;;;;;;;;;;;23.00;99.90;;;;;;5013954;28;20397;-71
2022/10/22 15:40:44;;;;;;;;;;;23.10;99.90;;;;;;5018624;28;20019;-69
2022/10/22 15:43:12;;;;;;;;;;;23.10;99.90;;;;;;5019470;28;19925;-71
2022/10/22 15:45:40;;;;;;;;;;;23.00;99.90;;;;;;5026725;28;19936;-71
2022/10/22 15:48:07;;;;;;;;;;;22.90;99.90;;;;;;5026164;28;19937;-71
2022/10/22 15:50:37;;;;;;;;;;;22.40;99.90;;;;;;5025647;28;19933;-70
2022/10/22 15:53:03;;;;;;;;;;;21.80;99.90;;;;;;5014839;28;20312;-70
2022/10/22 15:55:30;;;;;;;;;;;21.50;99.90;;;;;;5027687;28;19931;-70
2022/10/22 15:57:57;;;;;;;;;;;21.10;99.90;;;;;;5020393;28;19932;-70
2022/10/22 16:00:25;;;;;;;;;;;20.60;99.90;;;;;;5017710;28;19926;-70
2022/10/22 16:02:53;;;;;;;;;;;20.50;99.90;;;;;;5019980;28;20338;-70
2022/10/22 16:05:20;;;;;;;;;;;20.30;99.90;;;;;;5018251;28;20399;-70
2022/10/22 16:07:47;;;;;;;;;;;20.10;99.90;;;;;;5016859;28;19934;-71
2022/10/22 16:10:14;;;;;;;;;;;19.90;99.90;;;;;;5018757;28;20027;-71
2022/10/22 16:12:41;;;;;;;;;;;19.70;99.90;;;;;;5028672;28;20384;-71
2022/10/22 16:15:09;;;;;;;;;;;19.30;99.90;;;;;;5019644;28;19983;-71
2022/10/22 16:17:37;;;;;;;;;;;19.20;99.90;;;;;;5015031;28;20373;-71
2022/10/22 16:20:04;;;;;;;;;;;19.00;99.90;;;;;;5021186;28;19926;-71
2022/10/22 16:22:32;;;;;;;;;;;18.80;99.90;;;;;;5019773;28;19983;-72
2022/10/22 16:24:59;;;;;;;;;;;18.70;99.90;;;;;;5022981;28;19939;-72
2022/10/22 16:27:26;;;;;;;;;;;18.50;99.90;;;;;;5025207;28;19925;-71
2022/10/22 16:29:52;;;;;;;;;;;18.40;99.90;;;;;;5021752;28;19964;-72
2022/10/22 16:32:19;;;;;;;;;;;18.30;99.90;;;;;;5020147;28;20458;-70
2022/10/22 16:34:47;;;;;;;;;;;18.30;99.90;;;;;;5019569;28;19933;-69
2022/10/22 16:37:14;;;;;;;;;;;18.20;99.90;;;;;;5023284;28;19932;-70
2022/10/22 16:39:41;;;;;;;;;;;18.10;99.90;;;;;;5022526;28;19931;-72
2022/10/22 16:42:08;;;;;;;;;;;18.00;99.90;;;;;;5022852;28;19926;-70
2022/10/22 16:44:35;;;;;;;;;;;17.90;99.90;;;;;;5020326;28;19925;-71
2022/10/22 16:47:01;;;;;;;;;;;17.80;99.90;;;;;;5014410;28;19929;-72
2022/10/22 16:49:28;;;;;;;;;;;17.70;99.90;;;;;;5014201;28;19926;-71
2022/10/22 16:51:57;;;;;;;;;;;17.60;99.90;;;;;;5016479;28;19934;-70
2022/10/22 16:54:24;;;;;;;;;;;17.50;99.90;;;;;;5023272;28;19925;-71
2022/10/22 16:56:50;;;;;;;;;;;17.50;99.90;;;;;;5025760;28;19936;-70
2022/10/22 16:59:17;;;;;;;;;;;17.40;99.90;;;;;;5028469;28;19925;-71
2022/10/22 17:01:44;;;;;;;;;;;17.30;99.90;;;;;;5022045;28;19925;-69
2022/10/22 17:04:11;;;;;;;;;;;17.20;99.90;;;;;;5022551;28;19925;-70
2022/10/22 17:06:38;;;;;;;;;;;17.20;99.90;;;;;;5021889;28;19926;-69
2022/10/22 17:09:06;;;;;;;;;;;17.10;99.90;;;;;;5013821;28;20388;-69
2022/10/22 17:11:34;;;;;;;;;;;17.00;99.90;;;;;;5021938;28;19925;-71
2022/10/22 17:14:01;;;;;;;;;;;16.90;99.90;;;;;;5016374;28;19925;-70
2022/10/22 17:16:28;;;;;;;;;;;16.70;99.90;;;;;;5019693;28;19940;-70
2022/10/22 17:18:55;;;;;;;;;;;16.70;99.90;;;;;;5017856;28;19937;-69
2022/10/22 17:21:23;;;;;;;;;;;16.60;99.90;;;;;;5013141;28;20312;-69
2022/10/22 17:23:53;;;;;;;;;;;16.50;99.90;;;;;;5015258;28;19933;-70